createdAt,value
2022-12-08T00:03:52.870Z,7.20
2022-12-08T00:08:58.363Z,11.90
2022-12-08T00:14:01.306Z,15.80
2022-12-08T00:19:04.035Z,7.30
2022-12-08T00:24:07.198Z,9.20
2022-12-08T00:29:15.883Z,8.60
2022-12-08T00:34:20.245Z,17.20
2022-12-08T00:39:22.726Z,6.40
2022-12-08T00:44:25.276Z,7.40
2022-12-08T00:49:27.775Z,9.90
2022-12-08T00:54:30.333Z,11.70
2022-12-08T00:59:32.865Z,8.90
2022-12-08T01:04:35.332Z,9.30
2022-12-08T01:09:37.991Z,10.40
2022-12-08T01:14:40.512Z,12.10
2022-12-08T01:19:43.160Z,4.10
2022-12-08T01:24:45.703Z,10.60
2022-12-08T01:29:48.186Z,11.50
2022-12-08T01:34:50.663Z,9.50
2022-12-08T01:39:53.193Z,8.70
2022-12-08T01:44:59.513Z,9.10
2022-12-08T01:55:14.901Z,8.40
2022-12-08T02:00:20.504Z,11.30
2022-12-08T02:05:27.016Z,8.40
2022-12-08T02:10:32.833Z,8.20
2022-12-08T02:15:44.090Z,8.60
2022-12-08T02:20:55.904Z,8.90
2022-12-08T02:26:01.333Z,10.20
2022-12-08T02:31:21.683Z,6.80
2022-12-08T02:36:34.973Z,5.50
2022-12-08T02:41:46.421Z,9.00
2022-12-08T02:46:54.219Z,9.90
2022-12-08T02:52:02.583Z,6.90
2022-12-08T02:57:24.423Z,6.60
2022-12-08T03:02:32.947Z,11.00
2022-12-08T03:07:42.476Z,10.90
2022-12-08T03:12:52.193Z,11.00
2022-12-08T03:17:57.611Z,8.20
2022-12-08T03:23:05.260Z,8.00
2022-12-08T03:28:08.099Z,6.70
2022-12-08T03:33:18.595Z,6.20
2022-12-08T03:38:21.703Z,9.80
2022-12-08T03:43:24.160Z,9.40
2022-12-08T03:48:26.721Z,7.60
2022-12-08T03:53:29.219Z,5.50
2022-12-08T03:58:37.238Z,10.80
2022-12-08T04:03:40.931Z,11.40
2022-12-08T04:08:43.437Z,5.60
2022-12-08T04:13:46.111Z,11.80
2022-12-08T04:18:48.854Z,10.20
2022-12-08T04:23:56.097Z,10.80
2022-12-08T04:29:01.718Z,6.00
2022-12-08T04:34:04.214Z,11.60
2022-12-08T04:39:07.024Z,6.60
2022-12-08T04:44:09.538Z,8.90
2022-12-08T04:49:12.035Z,8.50
2022-12-08T04:54:14.532Z,11.70
2022-12-08T04:59:17.001Z,7.50
2022-12-08T05:04:19.501Z,6.20
2022-12-08T05:09:22.193Z,9.20
2022-12-08T05:14:24.667Z,9.00
2022-12-08T05:19:27.160Z,7.80
2022-12-08T05:24:29.700Z,12.70
2022-12-08T05:29:32.245Z,8.60
2022-12-08T05:34:34.754Z,9.60
2022-12-08T05:39:37.427Z,5.10
2022-12-08T05:44:39.939Z,11.00
2022-12-08T05:49:42.431Z,7.90
2022-12-08T05:54:45.034Z,9.60
2022-12-08T05:59:47.505Z,11.90
2022-12-08T06:04:50.048Z,10.30
2022-12-08T06:09:54.845Z,7.80
2022-12-08T06:14:57.317Z,9.70
2022-12-08T06:20:00.007Z,12.70
2022-12-08T06:25:05.995Z,20.50
2022-12-08T06:30:11.284Z,13.10
2022-12-08T06:35:16.440Z,10.40
2022-12-08T06:40:19.154Z,7.70
2022-12-08T06:45:21.659Z,8.30
2022-12-08T06:50:24.313Z,10.00
2022-12-08T06:55:58.747Z,8.10
2022-12-08T07:00:51.587Z,11.30
2022-12-08T07:06:01.813Z,12.50
2022-12-08T07:11:09.133Z,18.60
2022-12-08T07:16:12.878Z,22.40
2022-12-08T07:21:16.444Z,15.30
2022-12-08T07:26:21.339Z,38.30
2022-12-08T07:31:25.548Z,16.30
2022-12-08T07:36:28.235Z,8.10
2022-12-08T07:41:30.815Z,5.60
2022-12-08T07:46:33.692Z,6.90
2022-12-08T07:51:36.419Z,4.90
2022-12-08T07:56:39.115Z,3.90
2022-12-08T08:01:45.321Z,4.70
2022-12-08T08:06:48.403Z,7.90
2022-12-08T08:12:14.465Z,5.30
2022-12-08T08:17:13.477Z,5.70
2022-12-08T08:22:16.424Z,3.00
2022-12-08T08:27:19.476Z,2.20
2022-12-08T08:32:22.161Z,8.20
2022-12-08T08:37:25.093Z,7.70
2022-12-08T08:42:27.827Z,5.80
2022-12-08T08:47:30.373Z,3.70
2022-12-08T08:52:33.100Z,6.60
2022-12-08T08:57:36.165Z,5.40
2022-12-08T09:02:39.806Z,5.60
2022-12-08T09:07:42.845Z,4.80
2022-12-08T09:12:45.772Z,8.80
2022-12-08T09:17:48.252Z,6.40
2022-12-08T09:22:51.185Z,7.60
2022-12-08T09:27:53.899Z,5.60
2022-12-08T09:32:57.000Z,7.80
2022-12-08T09:37:59.724Z,10.40
2022-12-08T09:43:06.381Z,9.70
2022-12-08T09:48:15.969Z,7.30
2022-12-08T09:53:27.371Z,10.60
2022-12-08T09:58:45.620Z,11.40
2022-12-08T10:03:49.356Z,9.90
2022-12-08T10:09:03.273Z,7.10
2022-12-08T10:14:16.292Z,11.80
2022-12-08T10:19:22.637Z,8.30
2022-12-08T10:24:34.509Z,9.20
2022-12-08T10:29:37.105Z,8.20
2022-12-08T10:35:03.675Z,8.00
2022-12-08T10:40:08.447Z,7.30
2022-12-08T10:45:20.144Z,13.50
2022-12-08T10:50:33.695Z,13.00
2022-12-08T10:55:43.503Z,4.80
2022-12-08T11:00:46.255Z,14.90
2022-12-08T11:05:49.503Z,13.30
2022-12-08T11:10:54.511Z,14.50
2022-12-08T11:15:57.707Z,13.80
2022-12-08T11:21:13.612Z,15.10
2022-12-08T11:26:23.883Z,11.00
2022-12-08T11:31:33.574Z,12.60
2022-12-08T11:36:38.070Z,16.90
2022-12-08T11:41:44.697Z,13.90
2022-12-08T11:46:51.006Z,14.50
2022-12-08T11:52:01.460Z,14.50
2022-12-08T11:57:08.533Z,20.10
2022-12-08T12:02:15.090Z,17.10
2022-12-08T12:07:29.024Z,22.00
2022-12-08T12:12:39.454Z,17.90
2022-12-08T12:17:48.260Z,17.60
2022-12-08T12:22:57.783Z,11.50
2022-12-08T12:28:04.489Z,12.90
2022-12-08T12:33:11.822Z,16.00
2022-12-08T12:38:24.527Z,18.90
2022-12-08T12:43:32.772Z,16.50
2022-12-08T12:48:35.285Z,13.00
2022-12-08T12:53:37.724Z,11.30
2022-12-08T12:58:42.396Z,16.80
2022-12-08T13:03:51.279Z,14.10
2022-12-08T13:08:56.164Z,17.00
2022-12-08T13:14:05.383Z,18.40
2022-12-08T13:19:14.439Z,23.70
2022-12-08T13:24:22.820Z,23.20
2022-12-08T13:29:26.510Z,20.90
2022-12-08T13:34:37.264Z,21.80
2022-12-08T13:39:39.675Z,18.20
2022-12-08T14:01:08.986Z,16.30
2022-12-08T14:06:17.556Z,21.80
2022-12-08T14:11:33.587Z,23.10
2022-12-08T14:16:39.755Z,19.30
2022-12-08T14:21:45.667Z,23.30
2022-12-08T14:26:52.914Z,26.30
2022-12-08T14:31:55.367Z,29.40
2022-12-08T14:36:58.549Z,33.20
2022-12-08T14:42:01.121Z,24.80
2022-12-08T14:47:09.451Z,27.70
2022-12-08T14:52:12.404Z,25.30
2022-12-08T14:57:15.520Z,25.10
2022-12-08T15:02:21.664Z,24.30
2022-12-08T15:12:31.782Z,30.20
2022-12-08T15:17:35.356Z,29.10
2022-12-08T15:22:38.772Z,20.50
2022-12-08T15:27:50.246Z,29.50
2022-12-08T15:32:54.106Z,29.00
2022-12-08T15:37:56.685Z,29.10
2022-12-08T15:42:59.191Z,27.90
2022-12-08T15:48:01.718Z,22.40
2022-12-08T15:53:04.216Z,29.80
2022-12-08T16:09:11.241Z,33.80
2022-12-08T16:15:23.029Z,23.20
2022-12-08T16:19:38.472Z,33.50
2022-12-08T16:24:41.042Z,42.10
2022-12-08T16:29:47.033Z,36.60
2022-12-08T16:39:55.092Z,35.10
2022-12-08T16:44:57.666Z,30.10
2022-12-08T16:50:00.204Z,34.30
2022-12-08T16:55:03.350Z,33.50
2022-12-08T17:00:08.855Z,33.90
2022-12-08T17:05:25.504Z,32.30
2022-12-08T17:10:30.278Z,33.10
2022-12-08T17:15:35.278Z,34.60
2022-12-08T17:20:39.183Z,36.00
2022-12-08T17:25:41.645Z,36.50
2022-12-08T17:30:44.211Z,32.50
2022-12-08T17:35:48.761Z,33.30
2022-12-08T17:40:56.957Z,38.20
2022-12-08T17:46:01.138Z,36.80
2022-12-08T17:51:03.798Z,32.70
2022-12-08T17:56:14.580Z,33.60
2022-12-08T18:01:17.272Z,28.60
2022-12-08T18:06:20.205Z,31.80
2022-12-08T18:11:23.859Z,32.80
2022-12-08T18:16:27.767Z,28.10
2022-12-08T18:21:30.418Z,28.50
2022-12-08T18:26:33.552Z,24.30
2022-12-08T18:31:36.016Z,27.60
2022-12-08T18:36:38.599Z,26.60
2022-12-08T18:41:41.065Z,25.90
2022-12-08T18:46:43.556Z,24.20
2022-12-08T18:51:48.896Z,23.60
2022-12-08T18:56:51.385Z,26.50
2022-12-08T19:01:53.923Z,22.20
2022-12-08T19:06:57.344Z,23.40
2022-12-08T19:11:59.850Z,26.50
2022-12-08T19:17:02.396Z,25.60
2022-12-08T19:22:04.949Z,23.40
2022-12-08T19:27:07.545Z,19.40
2022-12-08T19:32:10.027Z,22.90
2022-12-08T19:37:12.923Z,25.60
2022-12-08T19:42:23.195Z,29.20
2022-12-08T19:47:27.553Z,29.40
2022-12-08T19:52:30.041Z,21.50
2022-12-08T19:57:32.546Z,25.20
2022-12-08T20:02:36.344Z,29.00
2022-12-08T20:07:39.943Z,27.10
2022-12-08T20:12:42.527Z,25.80
2022-12-08T20:17:45.079Z,25.20
2022-12-08T20:22:49.787Z,26.90
2022-12-08T20:27:52.287Z,24.80
2022-12-08T20:32:54.767Z,27.60
2022-12-08T20:37:57.296Z,25.20
2022-12-08T20:43:00.130Z,28.70
2022-12-08T20:48:02.674Z,23.10
2022-12-08T20:53:05.398Z,25.90
2022-12-08T20:58:08.741Z,26.80
2022-12-08T21:03:13.164Z,26.70
2022-12-08T21:08:16.110Z,29.50
2022-12-08T21:13:18.877Z,23.40
2022-12-08T21:18:21.850Z,28.60
2022-12-08T21:23:24.408Z,27.40
2022-12-08T21:28:27.391Z,29.40
2022-12-08T21:33:30.051Z,27.50
2022-12-08T21:38:32.775Z,28.50
2022-12-08T21:43:35.791Z,26.80
2022-12-08T21:48:38.316Z,28.40
2022-12-08T21:53:41.037Z,23.20
2022-12-08T21:58:43.670Z,29.30
2022-12-08T22:03:46.399Z,28.90
2022-12-08T22:08:49.196Z,34.90
2022-12-08T22:13:51.796Z,31.40
2022-12-08T22:18:54.438Z,31.60
2022-12-08T22:23:58.413Z,34.20
2022-12-08T22:29:01.697Z,31.20
2022-12-08T22:34:04.303Z,29.00
2022-12-08T22:39:06.803Z,29.00
2022-12-08T22:44:09.544Z,28.50
2022-12-08T22:49:12.106Z,30.10
2022-12-08T22:54:14.647Z,30.10
2022-12-08T22:59:17.127Z,25.20
2022-12-08T23:04:20.147Z,33.70
2022-12-08T23:09:23.613Z,35.30
2022-12-08T23:14:26.140Z,35.00
2022-12-08T23:19:28.743Z,29.00
2022-12-08T23:24:33.430Z,33.10
2022-12-08T23:29:37.107Z,33.90
2022-12-08T23:34:39.694Z,34.70
2022-12-08T23:39:42.226Z,33.20
2022-12-08T23:44:44.645Z,27.10
2022-12-08T23:49:47.063Z,37.00
2022-12-08T23:54:50.343Z,36.80
2022-12-08T23:59:53.004Z,29.90
